createdAt,value
2023-03-15T00:02:25.107Z,7.00
2023-03-15T00:04:54.919Z,5.33
2023-03-15T00:07:26.006Z,4.17
2023-03-15T00:09:56.131Z,8.57
2023-03-15T00:12:26.335Z,4.50
2023-03-15T00:14:56.157Z,4.80
2023-03-15T00:17:25.881Z,4.37
2023-03-15T00:19:55.720Z,5.43
2023-03-15T00:22:25.247Z,1.97
2023-03-15T00:24:54.997Z,4.10
2023-03-15T00:27:24.759Z,5.23
2023-03-15T00:29:55.291Z,3.57
2023-03-15T00:32:25.063Z,4.50
2023-03-15T00:34:55.156Z,2.60
2023-03-15T00:37:25.688Z,2.80
2023-03-15T00:39:55.922Z,3.85
2023-03-15T00:42:27.372Z,2.87
2023-03-15T00:44:57.446Z,1.80
2023-03-15T00:47:27.671Z,2.33
2023-03-15T00:49:57.477Z,6.43
2023-03-15T00:52:27.145Z,2.10
2023-03-15T00:54:57.283Z,1.53
2023-03-15T00:57:27.678Z,2.87
2023-03-15T00:59:57.790Z,2.03
2023-03-15T01:02:27.737Z,3.70
2023-03-15T01:04:57.620Z,3.40
2023-03-15T01:07:27.541Z,2.90
2023-03-15T01:09:57.448Z,3.57
2023-03-15T01:12:27.687Z,3.07
2023-03-15T01:14:57.783Z,1.82
2023-03-15T01:17:27.991Z,2.93
2023-03-15T01:19:58.594Z,2.20
2023-03-15T01:22:28.762Z,2.98
2023-03-15T01:24:58.552Z,2.67
2023-03-15T01:27:28.915Z,4.33
2023-03-15T01:29:59.395Z,2.08
2023-03-15T01:32:29.337Z,2.43
2023-03-15T01:34:59.278Z,4.20
2023-03-15T01:37:29.196Z,6.17
2023-03-15T01:39:59.209Z,6.13
2023-03-15T01:42:29.020Z,4.00
2023-03-15T01:45:00.717Z,4.43
2023-03-15T01:47:32.743Z,4.45
2023-03-15T01:50:09.798Z,4.08
2023-03-15T01:52:42.787Z,2.98
2023-03-15T01:55:17.015Z,7.30
2023-03-15T01:57:59.772Z,4.87
2023-03-15T02:00:31.579Z,5.12
2023-03-15T02:03:15.399Z,3.95
2023-03-15T02:05:49.578Z,2.57
2023-03-15T02:08:23.034Z,3.17
2023-03-15T02:10:55.526Z,1.70
2023-03-15T02:13:27.763Z,3.33
2023-03-15T02:15:58.549Z,1.90
2023-03-15T02:18:30.056Z,1.80
2023-03-15T02:21:23.674Z,2.20
2023-03-15T02:24:05.472Z,2.00
2023-03-15T02:26:40.982Z,1.87
2023-03-15T02:29:11.004Z,2.40
2023-03-15T02:31:41.281Z,1.57
2023-03-15T02:34:12.645Z,1.80
2023-03-15T02:36:43.732Z,3.10
2023-03-15T02:39:18.476Z,1.73
2023-03-15T02:41:54.124Z,2.43
2023-03-15T02:44:29.552Z,2.87
2023-03-15T02:47:02.470Z,2.03
2023-03-15T02:49:35.856Z,2.15
2023-03-15T02:52:06.496Z,2.70
2023-03-15T02:54:36.565Z,1.70
2023-03-15T02:57:06.504Z,2.37
2023-03-15T02:59:36.710Z,3.63
2023-03-15T03:02:06.897Z,2.40
2023-03-15T03:04:37.085Z,2.50
2023-03-15T03:07:07.482Z,1.73
2023-03-15T03:09:41.969Z,4.33
2023-03-15T03:12:13.497Z,3.57
2023-03-15T03:14:44.016Z,4.77
2023-03-15T03:17:15.571Z,3.27
2023-03-15T03:19:45.857Z,5.53
2023-03-15T03:22:18.822Z,4.50
2023-03-15T03:24:48.705Z,4.37
2023-03-15T03:27:19.368Z,7.10
2023-03-15T03:29:50.201Z,6.70
2023-03-15T03:32:19.733Z,4.47
2023-03-15T03:34:49.565Z,5.23
2023-03-15T03:37:22.072Z,4.77
2023-03-15T03:39:59.778Z,5.30
2023-03-15T03:42:29.417Z,5.33
2023-03-15T03:44:59.259Z,5.40
2023-03-15T03:47:30.770Z,8.00
2023-03-15T03:50:00.605Z,7.17
2023-03-15T03:52:30.812Z,6.15
2023-03-15T03:55:03.731Z,6.95
2023-03-15T03:57:33.855Z,7.30
2023-03-15T04:00:04.777Z,7.87
2023-03-15T04:02:36.891Z,7.87
2023-03-15T04:05:08.532Z,8.63
2023-03-15T04:07:39.591Z,7.72
2023-03-15T04:10:12.622Z,9.30
2023-03-15T04:12:46.253Z,10.20
2023-03-15T04:15:16.849Z,8.17
2023-03-15T04:17:47.118Z,9.98
2023-03-15T04:20:17.499Z,9.63
2023-03-15T04:22:49.678Z,9.85
2023-03-15T04:28:02.738Z,8.95
2023-03-15T04:30:33.895Z,6.73
2023-03-15T04:33:08.322Z,8.27
2023-03-15T04:35:45.708Z,13.30
2023-03-15T04:38:34.472Z,9.50
2023-03-15T04:41:20.752Z,9.07
2023-03-15T04:43:54.769Z,10.33
2023-03-15T04:46:44.044Z,10.40
2023-03-15T04:49:24.956Z,12.37
2023-03-15T04:51:56.426Z,9.00
2023-03-15T04:54:31.099Z,10.40
2023-03-15T04:57:18.771Z,11.67
2023-03-15T04:59:50.843Z,13.48
2023-03-15T05:02:28.391Z,11.63
2023-03-15T05:05:00.223Z,12.82
2023-03-15T05:07:38.760Z,12.03
2023-03-15T05:10:16.538Z,12.15
2023-03-15T05:12:51.014Z,14.07
2023-03-15T05:15:28.558Z,11.50
2023-03-15T05:18:00.434Z,13.03
2023-03-15T05:20:43.670Z,13.43
2023-03-15T05:23:25.328Z,17.92
2023-03-15T05:25:58.073Z,12.80
2023-03-15T05:28:45.614Z,13.60
2023-03-15T05:31:19.757Z,13.53
2023-03-15T05:33:57.425Z,12.10
2023-03-15T05:36:41.865Z,11.70
2023-03-15T05:39:15.383Z,15.48
2023-03-15T05:41:53.060Z,12.00
2023-03-15T05:44:42.680Z,12.57
2023-03-15T05:47:14.157Z,14.87
2023-03-15T05:49:54.223Z,16.23
2023-03-15T05:52:26.408Z,13.10
2023-03-15T05:55:00.378Z,14.87
2023-03-15T05:57:43.908Z,14.07
2023-03-15T06:00:18.664Z,18.60
2023-03-15T06:02:50.334Z,11.93
2023-03-15T06:05:24.466Z,14.50
2023-03-15T06:07:54.370Z,15.33
2023-03-15T06:10:24.335Z,14.03
2023-03-15T06:12:55.393Z,16.77
2023-03-15T06:15:25.252Z,11.37
2023-03-15T06:17:55.426Z,14.77
2023-03-15T06:20:26.789Z,13.22
2023-03-15T06:22:57.243Z,10.97
2023-03-15T06:25:29.035Z,16.83
2023-03-15T06:27:59.204Z,16.30
2023-03-15T06:30:29.640Z,14.23
2023-03-15T06:33:01.222Z,11.20
2023-03-15T06:35:33.016Z,14.95
2023-03-15T06:38:02.918Z,16.17
2023-03-15T06:40:34.718Z,14.58
2023-03-15T06:43:06.225Z,17.67
2023-03-15T06:45:36.808Z,15.23
2023-03-15T06:48:07.044Z,14.97
2023-03-15T06:50:46.976Z,16.10
2023-03-15T06:53:09.051Z,17.63
2023-03-15T06:55:38.853Z,15.73
2023-03-15T06:58:08.707Z,12.70
2023-03-15T07:00:38.916Z,15.40
2023-03-15T07:03:08.822Z,19.20
2023-03-15T07:05:39.029Z,18.53
2023-03-15T07:08:08.972Z,15.20
2023-03-15T07:10:38.829Z,15.03
2023-03-15T07:13:09.758Z,13.23
2023-03-15T07:15:40.072Z,19.67
2023-03-15T07:18:10.071Z,15.33
2023-03-15T07:20:39.907Z,14.60
2023-03-15T07:23:09.723Z,20.83
2023-03-15T07:25:54.053Z,17.73
2023-03-15T07:28:11.100Z,18.50
2023-03-15T07:30:40.853Z,16.87
2023-03-15T07:33:10.670Z,16.60
2023-03-15T07:35:41.334Z,13.93
2023-03-15T07:38:11.839Z,18.33
2023-03-15T07:40:41.579Z,15.03
2023-03-15T07:43:11.350Z,12.83
2023-03-15T07:45:41.122Z,15.47
2023-03-15T07:48:11.252Z,16.70
2023-03-15T07:50:42.931Z,14.77
2023-03-15T07:53:12.578Z,14.70
2023-03-15T07:55:42.398Z,15.63
2023-03-15T07:58:11.906Z,16.32
2023-03-15T08:00:41.844Z,16.83
2023-03-15T08:03:12.169Z,16.23
2023-03-15T08:05:42.073Z,16.57
2023-03-15T08:08:11.962Z,15.48
2023-03-15T08:10:43.109Z,15.57
2023-03-15T08:13:13.459Z,12.60
2023-03-15T08:15:44.787Z,11.23
2023-03-15T08:18:14.917Z,11.95
2023-03-15T08:20:44.684Z,8.53
2023-03-15T08:23:16.339Z,10.60
2023-03-15T08:25:46.561Z,9.87
2023-03-15T08:28:16.888Z,13.90
2023-03-15T08:30:46.697Z,14.20
2023-03-15T08:33:16.508Z,11.63
2023-03-15T08:35:46.454Z,15.53
2023-03-15T08:38:17.028Z,9.13
2023-03-15T08:40:47.069Z,11.60
2023-03-15T08:43:16.931Z,11.20
2023-03-15T08:46:00.279Z,7.70
2023-03-15T08:48:18.570Z,11.90
2023-03-15T08:50:48.684Z,8.83
2023-03-15T08:53:18.508Z,8.37
2023-03-15T08:55:49.787Z,10.17
2023-03-15T08:58:19.396Z,9.00
2023-03-15T09:00:51.539Z,10.60
2023-03-15T09:03:22.500Z,8.70
2023-03-15T09:05:54.079Z,12.90
2023-03-15T09:08:25.222Z,9.00
2023-03-15T09:10:57.072Z,10.58
2023-03-15T09:13:27.408Z,13.20
2023-03-15T09:15:58.427Z,12.07
2023-03-15T09:18:28.486Z,11.88
2023-03-15T09:20:58.346Z,9.37
2023-03-15T09:23:28.179Z,8.03
2023-03-15T09:25:57.990Z,13.53
2023-03-15T09:28:27.928Z,7.45
2023-03-15T09:30:59.575Z,11.50
2023-03-15T09:33:29.250Z,7.60
2023-03-15T09:35:59.852Z,8.68
2023-03-15T09:38:29.586Z,11.15
2023-03-15T09:41:00.339Z,11.60
2023-03-15T09:43:54.091Z,9.90
2023-03-15T09:46:29.728Z,9.20
2023-03-15T09:49:17.182Z,5.53
2023-03-15T09:51:55.755Z,11.03
2023-03-15T09:54:34.452Z,4.92
2023-03-15T09:57:08.927Z,10.37
2023-03-15T09:59:43.025Z,9.27
2023-03-15T10:02:24.341Z,9.05
2023-03-15T10:04:57.274Z,8.57
2023-03-15T10:07:27.663Z,5.80
2023-03-15T10:09:59.031Z,8.40
2023-03-15T10:12:36.074Z,11.45
2023-03-15T10:15:26.512Z,5.42
2023-03-15T10:18:26.208Z,9.80
2023-03-15T10:21:01.695Z,8.40
2023-03-15T10:23:51.964Z,5.83
2023-03-15T10:26:27.255Z,4.33
2023-03-15T10:28:57.132Z,7.10
2023-03-15T10:31:41.291Z,7.70
2023-03-15T10:34:02.527Z,5.97
2023-03-15T10:36:32.098Z,8.23
2023-03-15T10:39:02.965Z,5.62
2023-03-15T10:41:47.235Z,5.17
2023-03-15T10:44:19.794Z,5.00
2023-03-15T10:47:22.511Z,7.67
2023-03-15T10:49:43.995Z,5.47
2023-03-15T10:52:35.923Z,7.20
2023-03-15T10:55:16.603Z,5.97
2023-03-15T10:57:55.329Z,7.17
2023-03-15T11:00:31.006Z,6.27
2023-03-15T11:03:18.659Z,10.05
2023-03-15T11:05:51.656Z,10.70
2023-03-15T11:08:24.216Z,5.85
2023-03-15T11:11:01.123Z,5.97
2023-03-15T11:13:39.081Z,4.30
2023-03-15T11:16:17.623Z,8.03
2023-03-15T11:18:58.866Z,5.67
2023-03-15T11:21:33.167Z,5.27
2023-03-15T11:24:05.624Z,4.23
2023-03-15T11:26:40.717Z,5.70
2023-03-15T11:29:19.095Z,6.17
2023-03-15T11:31:50.171Z,6.83
2023-03-15T11:34:34.760Z,6.27
2023-03-15T11:37:09.386Z,21.77
2023-03-15T11:39:43.530Z,3.60
2023-03-15T11:42:16.993Z,8.97
2023-03-15T11:44:51.957Z,11.77
2023-03-15T11:47:39.605Z,6.97
2023-03-15T11:50:11.200Z,4.64
2023-03-15T11:52:41.322Z,7.40
2023-03-15T11:55:22.514Z,4.70
2023-03-15T11:57:53.294Z,6.93
2023-03-15T12:00:34.781Z,3.55
2023-03-15T12:03:33.887Z,6.60
2023-03-15T12:06:18.641Z,3.80
2023-03-15T12:08:51.438Z,5.60
2023-03-15T12:11:26.879Z,9.40
2023-03-15T12:14:02.125Z,6.43
2023-03-15T12:16:34.868Z,6.60
2023-03-15T12:21:54.343Z,9.80
2023-03-15T12:24:29.604Z,5.08
2023-03-15T12:27:08.437Z,4.40
2023-03-15T12:29:38.770Z,6.67
2023-03-15T12:32:11.461Z,6.10
2023-03-15T12:34:59.094Z,6.57
2023-03-15T12:37:40.701Z,7.03
2023-03-15T12:40:22.401Z,5.44
2023-03-15T12:42:58.056Z,6.20
2023-03-15T12:45:37.562Z,6.63
2023-03-15T12:48:12.917Z,3.40
2023-03-15T12:50:50.212Z,3.53
2023-03-15T12:53:25.484Z,7.47
2023-03-15T12:56:06.139Z,7.20
2023-03-15T12:58:33.501Z,7.35
2023-03-15T13:01:06.367Z,8.87
2023-03-15T13:03:37.098Z,4.13
2023-03-15T13:06:24.832Z,4.90
2023-03-15T13:09:06.552Z,5.90
2023-03-15T13:12:08.564Z,3.53
2023-03-15T13:14:44.576Z,4.25
2023-03-15T13:17:31.951Z,4.13
2023-03-15T13:20:37.239Z,5.53
2023-03-15T13:23:26.184Z,7.83
2023-03-15T13:26:15.192Z,3.03
2023-03-15T13:29:03.641Z,7.83
2023-03-15T13:31:34.596Z,7.75
2023-03-15T13:34:24.250Z,3.30
2023-03-15T13:37:01.381Z,4.50
2023-03-15T13:39:34.268Z,4.63
2023-03-15T13:42:09.689Z,3.77
2023-03-15T13:44:39.167Z,5.50
2023-03-15T13:47:08.994Z,7.10
2023-03-15T13:49:38.843Z,3.20
2023-03-15T13:52:12.701Z,4.17
2023-03-15T13:54:44.326Z,3.50
2023-03-15T13:57:17.472Z,10.37
2023-03-15T13:59:55.923Z,4.63
2023-03-15T14:02:28.828Z,2.15
2023-03-15T14:05:01.647Z,11.03
2023-03-15T14:07:44.950Z,2.17
2023-03-15T14:10:28.190Z,6.70
2023-03-15T14:13:00.170Z,15.27
2023-03-15T14:15:39.279Z,4.53
2023-03-15T14:18:12.922Z,5.08
2023-03-15T14:20:44.808Z,6.70
2023-03-15T14:23:17.477Z,3.90
2023-03-15T14:25:53.154Z,3.50
2023-03-15T14:28:24.747Z,4.97
2023-03-15T14:30:57.118Z,2.00
2023-03-15T14:33:33.115Z,4.10
2023-03-15T14:36:07.233Z,5.83
2023-03-15T14:38:40.118Z,6.60
2023-03-15T14:41:15.560Z,2.55
2023-03-15T14:43:45.108Z,2.43
2023-03-15T14:46:14.801Z,2.13
2023-03-15T14:48:44.890Z,2.27
2023-03-15T14:51:19.880Z,2.10
2023-03-15T14:53:53.306Z,2.60
2023-03-15T14:56:23.515Z,2.53
2023-03-15T14:58:55.430Z,3.85
2023-03-15T15:01:28.102Z,6.30
2023-03-15T15:04:03.320Z,4.00
2023-03-15T15:06:33.254Z,3.43
2023-03-15T15:09:06.344Z,7.83
2023-03-15T15:11:36.183Z,5.03
2023-03-15T15:14:12.282Z,3.05
2023-03-15T15:16:43.077Z,5.80
2023-03-15T15:19:12.984Z,3.30
2023-03-15T15:21:44.539Z,3.80
2023-03-15T15:24:19.904Z,2.50
2023-03-15T15:26:49.735Z,2.10
2023-03-15T15:29:19.539Z,3.70
2023-03-15T15:31:49.338Z,2.80
2023-03-15T15:34:19.035Z,5.70
2023-03-15T15:36:48.885Z,4.50
2023-03-15T15:39:24.018Z,2.77
2023-03-15T15:41:54.503Z,2.37
2023-03-15T15:44:28.104Z,2.70
2023-03-15T15:46:57.863Z,3.27
2023-03-15T15:49:27.623Z,3.80
2023-03-15T15:51:57.466Z,4.43
2023-03-15T15:54:30.527Z,4.77
2023-03-15T15:57:02.336Z,6.10
2023-03-15T15:59:32.149Z,4.30
2023-03-15T16:02:02.583Z,4.75
2023-03-15T16:04:32.956Z,6.27
2023-03-15T16:07:04.118Z,5.20
2023-03-15T16:09:40.009Z,5.93
2023-03-15T16:12:17.826Z,2.46
2023-03-15T16:14:47.655Z,5.47
2023-03-15T16:17:22.801Z,3.95
2023-03-15T16:19:54.169Z,3.40
2023-03-15T16:22:26.381Z,1.87
2023-03-15T16:25:00.380Z,6.43
2023-03-15T16:27:30.705Z,7.90
2023-03-15T16:30:02.410Z,3.07
2023-03-15T16:32:44.045Z,3.37
2023-03-15T16:35:07.952Z,3.75
2023-03-15T16:37:37.506Z,3.70
2023-03-15T16:40:12.444Z,4.08
2023-03-15T16:42:42.199Z,3.77
2023-03-15T16:45:15.973Z,4.40
2023-03-15T16:47:45.990Z,2.83
2023-03-15T16:50:17.107Z,5.83
2023-03-15T16:52:49.805Z,4.30
2023-03-15T16:55:25.740Z,3.87
2023-03-15T16:57:55.692Z,7.73
2023-03-15T17:00:25.468Z,3.40
2023-03-15T17:02:57.053Z,6.40
2023-03-15T17:05:27.420Z,4.30
2023-03-15T17:07:57.169Z,4.37
2023-03-15T17:10:32.743Z,2.90
2023-03-15T17:13:03.954Z,5.72
2023-03-15T17:15:33.799Z,4.23
2023-03-15T17:18:04.683Z,11.87
2023-03-15T17:20:34.431Z,4.70
2023-03-15T17:23:05.901Z,6.20
2023-03-15T17:25:35.919Z,3.77
2023-03-15T17:28:07.210Z,5.27
2023-03-15T17:30:38.614Z,6.00
2023-03-15T17:33:09.022Z,5.28
2023-03-15T17:35:44.661Z,10.13
2023-03-15T17:38:19.691Z,5.60
2023-03-15T17:40:50.086Z,3.62
2023-03-15T17:43:20.245Z,2.83
2023-03-15T17:45:50.056Z,5.67
2023-03-15T17:48:19.609Z,4.05
2023-03-15T17:50:49.438Z,4.27
2023-03-15T17:53:21.008Z,5.57
2023-03-15T17:55:52.368Z,5.20
2023-03-15T17:58:23.791Z,5.43
2023-03-15T18:00:57.076Z,3.63
2023-03-15T18:03:27.651Z,4.03
2023-03-15T18:05:59.355Z,3.63
2023-03-15T18:08:28.919Z,4.47
2023-03-15T18:10:59.821Z,5.53
2023-03-15T18:13:29.888Z,3.47
2023-03-15T18:15:59.988Z,4.37
2023-03-15T18:18:29.725Z,2.77
2023-03-15T18:20:59.465Z,4.33
2023-03-15T18:23:29.502Z,6.72
2023-03-15T18:25:59.252Z,5.20
2023-03-15T18:28:29.006Z,6.97
2023-03-15T18:30:58.731Z,5.57
2023-03-15T18:33:30.264Z,8.15
2023-03-15T18:35:59.829Z,6.50
2023-03-15T18:38:30.024Z,4.62
2023-03-15T18:40:59.962Z,5.23
2023-03-15T18:43:29.833Z,6.30
2023-03-15T18:45:59.946Z,8.88
2023-03-15T18:48:40.045Z,4.17
2023-03-15T18:51:01.770Z,7.87
2023-03-15T18:53:31.842Z,7.72
2023-03-15T18:56:01.746Z,7.83
2023-03-15T18:58:32.278Z,4.83
2023-03-15T19:01:02.355Z,5.60
2023-03-15T19:03:32.249Z,7.73
2023-03-15T19:06:07.495Z,6.87
2023-03-15T19:08:37.577Z,8.50
2023-03-15T19:11:08.448Z,5.33
2023-03-15T19:13:39.014Z,6.35
2023-03-15T19:16:10.921Z,4.05
2023-03-15T19:18:42.667Z,7.10
2023-03-15T19:21:12.587Z,6.90
2023-03-15T19:23:42.416Z,4.73
2023-03-15T19:26:13.679Z,9.00
2023-03-15T19:28:43.661Z,6.10
2023-03-15T19:31:13.474Z,5.70
2023-03-15T19:33:43.345Z,9.40
2023-03-15T19:36:13.256Z,9.98
2023-03-15T19:38:43.759Z,6.93
2023-03-15T19:41:13.541Z,7.90
2023-03-15T19:43:43.610Z,7.00
2023-03-15T19:46:14.857Z,4.47
2023-03-15T19:48:44.742Z,10.25
2023-03-15T19:51:16.068Z,5.67
2023-03-15T19:53:46.100Z,10.93
2023-03-15T19:56:15.714Z,10.47
2023-03-15T19:58:45.502Z,12.33
2023-03-15T20:01:16.063Z,9.07
2023-03-15T20:03:45.834Z,7.17
2023-03-15T20:06:15.352Z,7.83
2023-03-15T20:08:45.201Z,7.97
2023-03-15T20:11:16.583Z,6.63
2023-03-15T20:13:46.760Z,9.03
2023-03-15T20:16:16.649Z,6.53
2023-03-15T20:18:47.450Z,10.10
2023-03-15T20:21:17.695Z,4.53
2023-03-15T20:23:48.045Z,6.97
2023-03-15T20:26:20.708Z,6.27
2023-03-15T20:28:50.629Z,8.13
2023-03-15T20:31:21.653Z,7.53
2023-03-15T20:33:52.086Z,6.50
2023-03-15T20:36:22.322Z,6.60
2023-03-15T20:38:52.115Z,6.23
2023-03-15T20:41:21.998Z,6.10
2023-03-15T20:43:52.133Z,8.30
2023-03-15T20:46:22.504Z,4.70
2023-03-15T20:48:55.234Z,8.10
2023-03-15T20:51:25.393Z,5.80
2023-03-15T20:53:55.242Z,12.47
2023-03-15T20:56:25.343Z,8.20
2023-03-15T20:58:55.478Z,10.93
2023-03-15T21:01:25.290Z,6.77
2023-03-15T21:03:56.321Z,8.20
2023-03-15T21:06:26.360Z,9.10
2023-03-15T21:08:56.176Z,9.63
2023-03-15T21:11:26.039Z,12.10
2023-03-15T21:13:56.681Z,5.83
2023-03-15T21:16:26.696Z,6.03
2023-03-15T21:18:56.804Z,7.17
2023-03-15T21:21:26.650Z,4.73
2023-03-15T21:23:56.846Z,10.23
2023-03-15T21:26:26.388Z,8.05
2023-03-15T21:28:56.296Z,6.80
2023-03-15T21:31:26.169Z,7.00
2023-03-15T21:33:55.981Z,7.10
2023-03-15T21:36:25.530Z,9.13
2023-03-15T21:38:55.314Z,7.67
2023-03-15T21:41:25.047Z,6.30
2023-03-15T21:43:54.935Z,7.83
2023-03-15T21:46:24.706Z,7.60
2023-03-15T21:48:54.494Z,8.37
2023-03-15T21:51:24.348Z,8.83
2023-03-15T21:53:54.062Z,7.80
2023-03-15T21:56:26.066Z,6.80
2023-03-15T21:58:56.330Z,5.90
2023-03-15T22:01:26.374Z,8.48
2023-03-15T22:03:56.183Z,7.67
2023-03-15T22:06:25.726Z,8.50
2023-03-15T22:08:55.380Z,9.75
2023-03-15T22:11:25.198Z,8.30
2023-03-15T22:13:54.948Z,8.07
2023-03-15T22:16:24.431Z,6.15
2023-03-15T22:18:54.502Z,6.42
2023-03-15T22:21:24.552Z,7.77
2023-03-15T22:23:54.363Z,6.87
2023-03-15T22:26:24.285Z,6.35
2023-03-15T22:28:54.010Z,5.97
2023-03-15T22:31:23.864Z,9.60
2023-03-15T22:33:53.720Z,6.50
2023-03-15T22:36:23.190Z,9.13
2023-03-15T22:38:53.110Z,7.17
2023-03-15T22:41:23.938Z,6.93
2023-03-15T22:43:54.772Z,6.27
2023-03-15T22:46:24.277Z,8.78
2023-03-15T22:48:54.652Z,8.70
2023-03-15T22:51:24.419Z,6.87
2023-03-15T22:53:54.325Z,6.90
2023-03-15T22:56:24.016Z,9.83
2023-03-15T22:58:55.460Z,7.27
2023-03-15T23:01:25.486Z,9.37
2023-03-15T23:03:55.254Z,5.83
2023-03-15T23:06:25.372Z,5.97
2023-03-15T23:08:55.140Z,7.50
2023-03-15T23:11:24.909Z,7.77
2023-03-15T23:13:54.744Z,7.27
2023-03-15T23:16:24.559Z,9.35
2023-03-15T23:18:54.893Z,9.78
2023-03-15T23:21:24.717Z,6.87
2023-03-15T23:23:54.580Z,7.87
2023-03-15T23:26:25.415Z,7.47
2023-03-15T23:28:55.951Z,6.70
2023-03-15T23:31:25.901Z,8.47
2023-03-15T23:33:55.979Z,4.95
2023-03-15T23:36:25.753Z,7.60
2023-03-15T23:38:55.288Z,7.65
2023-03-15T23:41:25.056Z,7.27
2023-03-15T23:43:54.877Z,6.53
2023-03-15T23:46:24.706Z,5.78
2023-03-15T23:48:54.440Z,6.63
2023-03-15T23:51:24.223Z,8.33
2023-03-15T23:53:54.025Z,9.87
2023-03-15T23:56:24.150Z,10.13
2023-03-15T23:58:53.899Z,7.90
